createdAt,value
2022-12-08T00:01:22.564Z,14.13
2022-12-08T00:03:49.603Z,18.40
2022-12-08T00:06:52.502Z,18.13
2022-12-08T00:09:32.031Z,17.97
2022-12-08T00:12:11.726Z,19.97
2022-12-08T00:14:40.974Z,20.40
2022-12-08T00:17:09.957Z,19.73
2022-12-08T00:19:39.514Z,15.47
2022-12-08T00:22:08.295Z,19.27
2022-12-08T00:24:39.380Z,20.83
2022-12-08T00:27:07.328Z,23.60
2022-12-08T00:29:34.381Z,22.37
2022-12-08T00:32:02.548Z,17.13
2022-12-08T00:34:29.699Z,18.87
2022-12-08T00:36:56.724Z,16.87
2022-12-08T00:39:23.830Z,20.40
2022-12-08T00:42:09.593Z,20.43
2022-12-08T00:44:37.675Z,22.03
2022-12-08T00:47:06.068Z,18.73
2022-12-08T00:49:33.207Z,18.27
2022-12-08T00:52:00.231Z,20.90
2022-12-08T00:54:27.260Z,17.57
2022-12-08T00:56:54.320Z,20.03
2022-12-08T00:59:21.637Z,23.23
2022-12-08T01:01:49.209Z,18.97
2022-12-08T01:04:18.072Z,22.30
2022-12-08T01:06:45.894Z,20.87
2022-12-08T01:09:14.056Z,21.20
2022-12-08T01:11:41.092Z,22.10
2022-12-08T01:14:08.150Z,21.17
2022-12-08T01:16:36.285Z,19.17
2022-12-08T01:19:04.504Z,18.50
2022-12-08T01:21:31.811Z,18.13
2022-12-08T01:24:00.385Z,18.73
2022-12-08T01:26:27.839Z,17.53
2022-12-08T01:28:55.209Z,17.43
2022-12-08T01:31:23.520Z,22.57
2022-12-08T01:33:50.746Z,18.80
2022-12-08T01:36:31.143Z,19.30
2022-12-08T01:38:59.608Z,22.40
2022-12-08T01:41:28.595Z,21.43
2022-12-08T01:44:01.780Z,22.73
2022-12-08T01:46:30.203Z,22.50
2022-12-08T01:49:01.646Z,21.47
2022-12-08T01:51:29.365Z,18.70
2022-12-08T01:53:56.805Z,20.27
2022-12-08T01:56:30.941Z,19.43
2022-12-08T01:58:58.355Z,23.33
2022-12-08T02:01:25.540Z,26.20
2022-12-08T02:03:55.925Z,19.43
2022-12-08T02:06:23.150Z,20.13
2022-12-08T02:08:50.737Z,24.10
2022-12-08T02:11:17.813Z,20.33
2022-12-08T02:13:46.168Z,18.47
2022-12-08T02:16:24.243Z,18.40
2022-12-08T02:19:30.299Z,20.87
2022-12-08T02:21:56.781Z,15.90
2022-12-08T02:24:23.832Z,24.37
2022-12-08T02:26:59.995Z,18.60
2022-12-08T02:29:40.401Z,19.33
2022-12-08T02:32:19.682Z,20.13
2022-12-08T02:34:46.773Z,15.90
2022-12-08T02:37:29.275Z,17.10
2022-12-08T02:40:20.593Z,18.87
2022-12-08T02:42:53.535Z,17.77
2022-12-08T02:45:26.084Z,17.53
2022-12-08T02:47:53.232Z,18.83
2022-12-08T02:50:20.311Z,15.63
2022-12-08T02:52:48.446Z,18.40
2022-12-08T02:55:38.425Z,20.93
2022-12-08T02:58:20.550Z,15.87
2022-12-08T03:00:50.365Z,14.47
2022-12-08T03:03:30.557Z,14.33
2022-12-08T03:06:02.147Z,18.10
2022-12-08T03:08:35.127Z,16.97
2022-12-08T03:11:03.724Z,14.27
2022-12-08T03:13:36.185Z,18.57
2022-12-08T03:16:05.965Z,17.27
2022-12-08T03:18:34.917Z,15.53
2022-12-08T03:21:03.934Z,14.53
2022-12-08T03:23:31.348Z,15.67
2022-12-08T03:26:17.266Z,24.07
2022-12-08T03:28:45.905Z,17.80
2022-12-08T03:31:14.575Z,15.77
2022-12-08T03:33:45.887Z,15.37
2022-12-08T03:36:13.859Z,14.33
2022-12-08T03:38:42.092Z,16.97
2022-12-08T03:41:18.277Z,16.73
2022-12-08T03:43:49.483Z,17.60
2022-12-08T03:46:17.231Z,16.60
2022-12-08T03:48:44.351Z,18.43
2022-12-08T03:51:11.555Z,18.53
2022-12-08T03:53:38.601Z,19.93
2022-12-08T03:56:35.028Z,23.43
2022-12-08T03:59:02.449Z,20.40
2022-12-08T04:01:29.635Z,17.57
2022-12-08T04:03:57.088Z,17.57
2022-12-08T04:06:24.140Z,18.80
2022-12-08T04:08:52.081Z,19.47
2022-12-08T04:11:19.720Z,20.73
2022-12-08T04:13:46.924Z,19.87
2022-12-08T04:16:19.036Z,18.87
2022-12-08T04:18:46.189Z,19.40
2022-12-08T04:21:13.499Z,22.57
2022-12-08T04:23:40.644Z,19.70
2022-12-08T04:26:08.203Z,21.37
2022-12-08T04:28:37.669Z,19.73
2022-12-08T04:31:07.264Z,20.87
2022-12-08T04:33:35.245Z,16.90
2022-12-08T04:36:03.096Z,20.53
2022-12-08T04:38:30.277Z,17.53
2022-12-08T04:40:57.435Z,18.07
2022-12-08T04:43:24.580Z,17.47
2022-12-08T04:45:51.658Z,21.77
2022-12-08T04:48:19.039Z,21.63
2022-12-08T04:50:46.865Z,17.63
2022-12-08T04:53:14.282Z,23.80
2022-12-08T04:55:43.647Z,23.13
2022-12-08T04:58:13.789Z,20.70
2022-12-08T05:00:41.999Z,21.23
2022-12-08T05:03:09.421Z,21.00
2022-12-08T05:05:36.696Z,23.63
2022-12-08T05:08:03.892Z,26.37
2022-12-08T05:10:31.062Z,21.07
2022-12-08T05:13:00.449Z,25.30
2022-12-08T05:15:27.714Z,19.77
2022-12-08T05:17:54.772Z,25.07
2022-12-08T05:20:23.399Z,23.30
2022-12-08T05:22:50.967Z,23.83
2022-12-08T05:25:19.127Z,23.10
2022-12-08T05:27:46.217Z,24.83
2022-12-08T05:30:14.899Z,23.90
2022-12-08T05:32:44.273Z,25.27
2022-12-08T05:35:11.486Z,25.20
2022-12-08T05:37:39.602Z,21.83
2022-12-08T05:40:07.292Z,21.10
2022-12-08T05:42:34.631Z,22.43
2022-12-08T05:45:01.827Z,20.77
2022-12-08T05:47:33.116Z,21.13
2022-12-08T05:50:05.266Z,20.00
2022-12-08T05:52:32.961Z,21.47
2022-12-08T05:55:00.005Z,20.40
2022-12-08T05:57:27.147Z,22.30
2022-12-08T05:59:54.243Z,18.70
2022-12-08T06:02:22.884Z,22.13
2022-12-08T06:04:50.029Z,19.53
2022-12-08T06:07:18.341Z,20.93
2022-12-08T06:09:45.465Z,22.63
2022-12-08T06:12:12.780Z,20.77
2022-12-08T06:14:41.907Z,18.80
2022-12-08T06:17:09.677Z,19.47
2022-12-08T06:19:36.816Z,19.37
2022-12-08T06:22:05.501Z,19.57
2022-12-08T06:24:32.552Z,20.97
2022-12-08T06:26:59.589Z,21.97
2022-12-08T06:29:27.596Z,20.07
2022-12-08T06:31:54.760Z,17.43
2022-12-08T06:34:21.855Z,20.47
2022-12-08T06:36:50.129Z,17.57
2022-12-08T06:39:17.223Z,17.87
2022-12-08T06:42:03.205Z,19.17
2022-12-08T06:44:31.768Z,15.67
2022-12-08T06:47:00.530Z,16.40
2022-12-08T06:49:29.155Z,16.07
2022-12-08T06:51:56.204Z,14.33
2022-12-08T06:54:24.592Z,17.37
2022-12-08T06:56:51.689Z,15.30
2022-12-08T06:59:20.012Z,15.43
2022-12-08T07:01:48.808Z,16.80
2022-12-08T07:04:15.898Z,16.60
2022-12-08T07:06:42.960Z,15.30
2022-12-08T07:09:10.036Z,18.17
2022-12-08T07:11:38.605Z,15.53
2022-12-08T07:14:05.752Z,15.47
2022-12-08T07:16:33.076Z,15.20
2022-12-08T07:19:00.525Z,16.87
2022-12-08T07:21:27.589Z,17.00
2022-12-08T07:23:57.920Z,18.00
2022-12-08T07:26:27.350Z,16.13
2022-12-08T07:28:54.459Z,13.93
2022-12-08T07:31:23.087Z,16.23
2022-12-08T07:33:50.903Z,29.90
2022-12-08T07:36:17.954Z,21.00
2022-12-08T07:38:45.043Z,21.73
2022-12-08T07:41:15.933Z,12.83
2022-12-08T07:43:43.062Z,20.57
2022-12-08T07:46:15.824Z,17.00
2022-12-08T07:48:43.169Z,15.10
2022-12-08T07:51:11.396Z,12.83
2022-12-08T07:53:42.555Z,12.53
2022-12-08T07:56:10.690Z,17.60
2022-12-08T07:58:37.859Z,14.73
2022-12-08T08:01:05.145Z,14.10
2022-12-08T08:03:33.787Z,11.97
2022-12-08T08:06:04.315Z,13.20
2022-12-08T08:08:31.885Z,12.30
2022-12-08T08:10:59.304Z,11.03
2022-12-08T08:13:26.355Z,12.40
2022-12-08T08:15:53.663Z,11.97
2022-12-08T08:18:20.813Z,12.13
2022-12-08T08:20:47.840Z,14.57
2022-12-08T08:23:14.913Z,14.73
2022-12-08T08:25:41.995Z,12.53
2022-12-08T08:28:09.026Z,12.87
2022-12-08T08:30:36.117Z,11.53
2022-12-08T08:33:03.278Z,9.60
2022-12-08T08:35:30.686Z,8.20
2022-12-08T08:37:57.833Z,10.60
2022-12-08T08:40:25.000Z,9.73
2022-12-08T08:42:52.142Z,9.17
2022-12-08T08:45:19.342Z,7.87
2022-12-08T08:47:46.458Z,8.90
2022-12-08T08:50:13.533Z,12.63
2022-12-08T08:52:40.592Z,14.80
2022-12-08T08:55:07.841Z,8.53
2022-12-08T08:57:34.880Z,7.83
2022-12-08T09:00:02.137Z,6.60
2022-12-08T09:02:29.462Z,6.17
2022-12-08T09:04:56.684Z,5.40
2022-12-08T09:07:23.801Z,9.53
2022-12-08T09:09:50.865Z,6.50
2022-12-08T09:12:17.931Z,7.63
2022-12-08T09:14:45.981Z,5.53
2022-12-08T09:17:13.117Z,5.33
2022-12-08T09:19:40.165Z,5.73
2022-12-08T09:22:07.366Z,5.33
2022-12-08T09:24:34.476Z,5.37
2022-12-08T09:27:01.517Z,5.63
2022-12-08T09:29:34.017Z,5.00
2022-12-08T09:32:02.929Z,6.40
2022-12-08T09:34:31.188Z,6.57
2022-12-08T09:36:58.398Z,6.97
2022-12-08T09:39:25.454Z,6.80
2022-12-08T09:41:59.418Z,4.87
2022-12-08T09:44:42.151Z,5.60
2022-12-08T09:47:16.083Z,7.63
2022-12-08T09:49:47.049Z,6.10
2022-12-08T09:52:23.869Z,5.50
2022-12-08T09:54:50.900Z,5.63
2022-12-08T09:57:19.797Z,7.03
2022-12-08T09:59:49.812Z,8.13
2022-12-08T10:02:24.517Z,6.00
2022-12-08T10:04:52.160Z,6.33
2022-12-08T10:07:30.730Z,7.23
2022-12-08T10:10:16.769Z,5.80
2022-12-08T10:12:47.606Z,5.70
2022-12-08T10:15:37.955Z,5.90
2022-12-08T10:18:10.879Z,5.87
2022-12-08T10:20:39.284Z,5.93
2022-12-08T10:23:09.162Z,5.50
2022-12-08T10:25:38.789Z,7.60
2022-12-08T10:28:05.878Z,5.97
2022-12-08T10:30:32.956Z,7.63
2022-12-08T10:33:00.579Z,5.67
2022-12-08T10:35:42.938Z,6.03
2022-12-08T10:38:17.198Z,5.67
2022-12-08T10:40:45.873Z,6.17
2022-12-08T10:43:22.181Z,6.83
2022-12-08T10:45:49.437Z,5.27
2022-12-08T10:48:16.494Z,5.80
2022-12-08T10:50:44.741Z,5.37
2022-12-08T10:53:14.103Z,5.50
2022-12-08T10:55:42.940Z,6.03
2022-12-08T10:58:28.801Z,5.87
2022-12-08T11:01:00.205Z,6.23
2022-12-08T11:03:29.175Z,6.03
2022-12-08T11:05:57.374Z,5.30
2022-12-08T11:08:24.728Z,5.13
2022-12-08T11:10:51.869Z,5.40
2022-12-08T11:13:24.358Z,4.50
2022-12-08T11:15:53.040Z,4.70
2022-12-08T11:18:22.917Z,4.97
2022-12-08T11:20:57.376Z,4.47
2022-12-08T11:23:25.341Z,4.40
2022-12-08T11:25:53.421Z,5.80
2022-12-08T11:28:24.044Z,5.13
2022-12-08T11:30:57.771Z,4.57
2022-12-08T11:33:28.832Z,4.13
2022-12-08T11:36:06.388Z,3.57
2022-12-08T11:38:35.348Z,6.37
2022-12-08T11:41:07.520Z,5.30
2022-12-08T11:43:44.042Z,5.00
2022-12-08T11:46:20.838Z,4.27
2022-12-08T11:48:55.541Z,4.40
2022-12-08T11:51:29.639Z,4.30
2022-12-08T11:54:07.019Z,4.73
2022-12-08T11:56:45.741Z,4.00
2022-12-08T11:59:24.996Z,5.40
2022-12-08T12:01:53.310Z,4.57
2022-12-08T12:04:30.346Z,3.93
2022-12-08T12:07:13.776Z,4.93
2022-12-08T12:09:52.679Z,5.93
2022-12-08T12:12:29.006Z,4.07
2022-12-08T12:15:08.139Z,4.90
2022-12-08T12:17:50.285Z,4.83
2022-12-08T12:20:20.699Z,4.83
2022-12-08T12:22:50.710Z,4.77
2022-12-08T12:25:22.364Z,4.60
2022-12-08T12:27:50.281Z,4.60
2022-12-08T12:30:27.796Z,5.27
2022-12-08T12:32:57.381Z,5.00
2022-12-08T12:35:44.929Z,5.00
2022-12-08T12:38:41.960Z,5.27
2022-12-08T12:41:10.896Z,5.80
2022-12-08T12:43:39.213Z,5.17
2022-12-08T12:46:27.288Z,4.93
2022-12-08T12:48:54.503Z,7.47
2022-12-08T12:51:36.600Z,18.03
2022-12-08T12:54:25.970Z,11.50
2022-12-08T12:57:05.344Z,10.13
2022-12-08T13:00:05.136Z,6.47
2022-12-08T13:02:38.435Z,5.60
2022-12-08T13:05:08.821Z,8.33
2022-12-08T13:07:39.913Z,6.50
2022-12-08T13:10:16.297Z,5.23
2022-12-08T13:12:44.597Z,6.13
2022-12-08T13:15:34.885Z,6.67
2022-12-08T13:18:02.057Z,5.80
2022-12-08T13:20:29.464Z,19.87
2022-12-08T13:23:13.745Z,20.33
2022-12-08T13:25:45.941Z,7.33
2022-12-08T13:28:31.427Z,7.20
2022-12-08T13:30:59.550Z,5.27
2022-12-08T13:33:34.439Z,6.00
2022-12-08T13:36:20.234Z,5.53
2022-12-08T13:38:47.986Z,7.33
2022-12-08T13:41:19.733Z,5.47
2022-12-08T13:44:31.163Z,6.87
2022-12-08T13:51:15.941Z,5.60
2022-12-08T13:56:51.248Z,5.00
2022-12-08T13:58:17.954Z,4.93
2022-12-08T14:00:54.409Z,4.87
2022-12-08T14:03:21.693Z,4.57
2022-12-08T14:06:11.594Z,4.47
2022-12-08T14:09:00.098Z,4.57
2022-12-08T14:11:34.530Z,5.63
2022-12-08T14:14:45.774Z,3.97
2022-12-08T14:17:12.361Z,5.43
2022-12-08T14:19:39.524Z,4.47
2022-12-08T14:22:09.564Z,8.17
2022-12-08T14:24:36.644Z,4.97
2022-12-08T14:27:05.197Z,4.27
2022-12-08T14:29:52.622Z,8.13
2022-12-08T14:32:21.581Z,3.50
2022-12-08T14:35:07.502Z,4.50
2022-12-08T14:37:45.268Z,5.20
2022-12-08T14:40:31.172Z,4.60
2022-12-08T14:43:10.386Z,4.53
2022-12-08T14:45:43.297Z,5.27
2022-12-08T14:48:26.349Z,5.43
2022-12-08T14:51:01.885Z,9.77
2022-12-08T14:53:49.295Z,31.13
2022-12-08T14:56:17.385Z,12.57
2022-12-08T14:58:44.779Z,5.90
2022-12-08T15:01:13.857Z,3.60
2022-12-08T15:03:50.431Z,5.10
2022-12-08T15:06:21.196Z,5.07
2022-12-08T15:08:56.570Z,4.40
2022-12-08T15:11:23.849Z,5.67
2022-12-08T15:13:52.236Z,4.47
2022-12-08T15:16:39.273Z,4.30
2022-12-08T15:19:23.329Z,5.67
2022-12-08T15:21:51.342Z,4.47
2022-12-08T15:24:25.001Z,5.17
2022-12-08T15:26:53.065Z,4.20
2022-12-08T15:29:24.767Z,5.47
2022-12-08T15:31:53.268Z,5.77
2022-12-08T15:34:22.026Z,4.43
2022-12-08T15:36:54.405Z,4.73
2022-12-08T15:39:34.712Z,7.43
2022-12-08T15:42:03.100Z,6.80
2022-12-08T15:44:32.470Z,5.57
2022-12-08T15:47:00.165Z,7.13
2022-12-08T15:49:27.324Z,8.50
2022-12-08T15:52:01.976Z,8.33
2022-12-08T15:54:37.700Z,5.80
2022-12-08T15:57:20.112Z,5.70
2022-12-08T15:59:52.331Z,6.33
2022-12-08T16:02:22.874Z,6.97
2022-12-08T16:07:38.258Z,8.90
2022-12-08T16:10:06.852Z,7.87
2022-12-08T16:13:55.041Z,8.83
2022-12-08T16:15:53.526Z,8.27
2022-12-08T16:18:27.880Z,7.87
2022-12-08T16:23:44.248Z,10.87
2022-12-08T16:26:28.359Z,12.03
2022-12-08T16:28:56.201Z,11.97
2022-12-08T16:31:23.666Z,11.07
2022-12-08T16:33:50.874Z,11.53
2022-12-08T16:36:17.970Z,11.20
2022-12-08T16:38:46.640Z,9.13
2022-12-08T16:41:36.344Z,10.93
2022-12-08T16:44:04.267Z,11.17
2022-12-08T16:46:31.540Z,14.20
2022-12-08T16:48:58.937Z,13.57
2022-12-08T16:51:27.424Z,19.73
2022-12-08T16:53:55.128Z,15.67
2022-12-08T16:56:28.819Z,23.60
2022-12-08T16:58:59.314Z,18.23
2022-12-08T17:01:26.466Z,17.47
2022-12-08T17:04:29.365Z,17.57
2022-12-08T17:06:44.077Z,17.30
2022-12-08T17:09:11.182Z,18.50
2022-12-08T17:11:42.931Z,21.23
2022-12-08T17:14:11.810Z,16.27
2022-12-08T17:16:38.963Z,20.20
2022-12-08T17:19:06.087Z,19.30
2022-12-08T17:21:33.154Z,16.37
2022-12-08T17:24:00.304Z,14.97
2022-12-08T17:26:27.513Z,15.07
2022-12-08T17:29:00.856Z,17.33
2022-12-08T17:31:30.248Z,14.17
2022-12-08T17:34:01.858Z,14.27
2022-12-08T17:36:30.710Z,15.87
2022-12-08T17:39:01.352Z,18.23
2022-12-08T17:41:28.656Z,15.37
2022-12-08T17:43:56.134Z,13.67
2022-12-08T17:46:23.873Z,17.23
2022-12-08T17:48:50.990Z,16.77
2022-12-08T17:51:18.358Z,17.80
2022-12-08T17:53:45.667Z,16.03
2022-12-08T17:56:17.089Z,17.80
2022-12-08T17:58:45.684Z,17.27
2022-12-08T18:01:14.808Z,16.40
2022-12-08T18:03:44.229Z,16.37
2022-12-08T18:06:13.355Z,15.37
2022-12-08T18:08:40.854Z,17.10
2022-12-08T18:11:13.177Z,18.37
2022-12-08T18:13:41.114Z,18.17
2022-12-08T18:16:08.359Z,16.97
2022-12-08T18:18:35.400Z,15.63
2022-12-08T18:21:02.456Z,18.90
2022-12-08T18:23:31.017Z,16.13
2022-12-08T18:25:58.049Z,20.80
2022-12-08T18:28:25.327Z,20.17
2022-12-08T18:30:52.431Z,16.23
2022-12-08T18:33:19.579Z,19.77
2022-12-08T18:35:46.618Z,55.57
2022-12-08T18:38:13.671Z,33.83
2022-12-08T18:40:40.763Z,24.17
2022-12-08T18:43:07.960Z,22.33
2022-12-08T18:45:36.822Z,20.07
2022-12-08T18:48:03.979Z,20.37
2022-12-08T18:50:31.106Z,19.70
2022-12-08T18:52:58.206Z,22.77
2022-12-08T18:55:25.313Z,22.10
2022-12-08T18:57:52.399Z,33.13
2022-12-08T19:00:20.152Z,35.77
2022-12-08T19:02:48.406Z,32.00
2022-12-08T19:05:15.609Z,34.37
2022-12-08T19:07:43.879Z,34.63
2022-12-08T19:10:12.095Z,31.43
2022-12-08T19:12:39.165Z,29.63
2022-12-08T19:15:06.590Z,34.93
2022-12-08T19:17:33.835Z,38.20
2022-12-08T19:20:01.202Z,35.20
2022-12-08T19:22:28.329Z,31.40
2022-12-08T19:24:55.412Z,29.73
2022-12-08T19:27:23.157Z,29.13
2022-12-08T19:29:50.227Z,29.50
2022-12-08T19:32:17.437Z,29.97
2022-12-08T19:34:44.522Z,29.07
2022-12-08T19:37:13.006Z,28.87
2022-12-08T19:39:59.414Z,32.43
2022-12-08T19:42:45.290Z,39.87
2022-12-08T19:45:17.636Z,50.47
2022-12-08T19:47:44.981Z,37.00
2022-12-08T19:50:31.726Z,37.53
2022-12-08T19:52:58.886Z,31.47
2022-12-08T19:55:27.201Z,33.67
2022-12-08T19:57:56.587Z,25.73
2022-12-08T20:00:23.909Z,25.43
2022-12-08T20:02:51.527Z,29.00
2022-12-08T20:05:19.000Z,26.00
2022-12-08T20:07:46.226Z,28.73
2022-12-08T20:10:22.113Z,27.03
2022-12-08T20:12:49.300Z,26.53
2022-12-08T20:15:16.484Z,31.97
2022-12-08T20:17:43.723Z,30.03
2022-12-08T20:20:12.510Z,25.43
2022-12-08T20:22:39.845Z,29.63
2022-12-08T20:25:07.169Z,27.97
2022-12-08T20:27:34.295Z,25.50
2022-12-08T20:30:01.613Z,23.87
2022-12-08T20:32:30.534Z,25.77
2022-12-08T20:34:57.732Z,27.90
2022-12-08T20:37:25.893Z,30.63
2022-12-08T20:39:53.003Z,31.60
2022-12-08T20:42:22.877Z,29.93
2022-12-08T20:44:50.063Z,29.87
2022-12-08T20:47:17.271Z,27.97
2022-12-08T20:49:44.995Z,30.60
2022-12-08T20:52:12.638Z,27.57
2022-12-08T20:54:40.011Z,30.70
2022-12-08T20:57:07.256Z,33.83
2022-12-08T20:59:34.319Z,31.57
2022-12-08T21:02:01.877Z,31.90
2022-12-08T21:04:29.430Z,30.40
2022-12-08T21:06:56.676Z,29.10
2022-12-08T21:09:23.828Z,31.20
2022-12-08T21:11:51.048Z,30.57
2022-12-08T21:14:18.412Z,29.13
2022-12-08T21:16:45.551Z,27.27
2022-12-08T21:19:12.817Z,27.77
2022-12-08T21:21:40.001Z,29.73
2022-12-08T21:24:07.515Z,30.10
2022-12-08T21:26:34.617Z,32.80
2022-12-08T21:29:02.000Z,30.13
2022-12-08T21:31:31.884Z,30.87
2022-12-08T21:33:59.569Z,36.07
2022-12-08T21:36:26.624Z,33.70
2022-12-08T21:38:54.939Z,34.40
2022-12-08T21:41:43.826Z,31.57
2022-12-08T21:44:11.927Z,29.97
2022-12-08T21:46:39.292Z,30.90
2022-12-08T21:49:07.032Z,32.77
2022-12-08T21:51:37.523Z,38.33
2022-12-08T21:54:05.039Z,32.90
2022-12-08T21:56:32.327Z,29.97
2022-12-08T21:58:59.566Z,32.27
2022-12-08T22:01:26.796Z,29.83
2022-12-08T22:03:54.279Z,33.97
2022-12-08T22:06:21.756Z,38.07
2022-12-08T22:08:49.110Z,37.07
2022-12-08T22:11:16.478Z,33.70
2022-12-08T22:13:43.817Z,41.33
2022-12-08T22:16:12.224Z,37.33
2022-12-08T22:18:39.604Z,37.43
2022-12-08T22:21:10.960Z,36.57
2022-12-08T22:23:38.426Z,38.83
2022-12-08T22:26:05.765Z,42.37
2022-12-08T22:28:35.438Z,40.07
2022-12-08T22:31:08.144Z,40.87
2022-12-08T22:33:35.426Z,39.33
2022-12-08T22:36:10.723Z,41.93
2022-12-08T22:38:38.468Z,41.43
2022-12-08T22:41:06.367Z,38.00
2022-12-08T22:43:34.097Z,42.53
2022-12-08T22:46:01.403Z,41.27
2022-12-08T22:48:28.842Z,36.63
2022-12-08T22:51:00.352Z,40.20
2022-12-08T22:53:27.670Z,38.67
2022-12-08T22:55:55.081Z,37.90
2022-12-08T22:58:22.308Z,40.90
2022-12-08T23:00:49.618Z,39.33
2022-12-08T23:03:17.053Z,41.90
2022-12-08T23:05:44.487Z,42.53
2022-12-08T23:08:14.623Z,43.97
2022-12-08T23:10:42.388Z,38.60
2022-12-08T23:13:10.081Z,38.60
2022-12-08T23:15:37.341Z,36.57
2022-12-08T23:18:05.011Z,40.83
2022-12-08T23:20:32.463Z,45.07
2022-12-08T23:22:59.721Z,36.43
2022-12-08T23:25:26.845Z,42.80
2022-12-08T23:27:53.939Z,43.10
2022-12-08T23:30:21.240Z,48.13
2022-12-08T23:32:48.426Z,40.23
2022-12-08T23:35:15.764Z,42.60
2022-12-08T23:37:42.876Z,39.23
2022-12-08T23:40:10.882Z,42.70
2022-12-08T23:42:38.251Z,38.90
2022-12-08T23:45:08.293Z,36.13
2022-12-08T23:47:35.992Z,37.53
2022-12-08T23:50:03.746Z,45.77
2022-12-08T23:52:31.217Z,38.40
2022-12-08T23:54:58.236Z,41.10
2022-12-08T23:57:25.455Z,37.37
2022-12-08T23:59:52.512Z,36.73
